航空気象通報

ウインドサーファーのための航空気象通報による風予報です。

2/24-2/26の航空気象通報

2018年02月24日 23時05分56秒 | TAF
羽田空港
TAF RJTT 241106Z 2412/2518 36016KT 9999 FEW030
BECMG 2503/2506 09012KT
BECMG 2512/2515 02010KT
日本時間24日21時-25日12時:360度から16ノットの風
12-15時:風が変化
15-21時:090度から6ノットの風
21-24時:風が変化
26日00-03時:020度から10ノットの風


静岡空港
TAF RJNS 241107Z 2412/2518 26012KT 9999 FEW030
BECMG 2419/2421 36006KT
BECMG 2500/2503 16008KT
BECMG 2509/2512 35005KT
日本時間24日21時-25日04時:260度から12ノットの風
04-06時:風が変化
06-09時:360度から6ノットの風
09-12時:風が変化
12-18時:160度から8ノットの風
18-21時:風が変化
21時-26日03時:350度から5ノットの風


福岡空港
TAF RJFF 241111Z 2412/2518 15005KT 9000 FEW035
TEMPO 2500/2503 4000 -SHRA BR
BECMG 2509/2512 04004KT
日本時間24日21時-25日18時:150度から5ノットの風
18-21時:風が変化
21時-26日03時:040度から4ノットの風

但し、25日09-12時の間:時々

那覇空港
TAF ROAH 241106Z 2412/2518 12010KT 9999 FEW030 SCT045
BECMG 2420/2422 20015KT
TEMPO 2506/2509 4000 SHRA FEW010 BKN020 FEW025CB
BECMG 2506/2509 33014KT
日本時間24日21時-25日05時:120度から10ノットの風
05-07時:風が変化
07-15時:200度から15ノットの風
15-18時:風が変化
18時-26日03時:330度から14ノットの風

但し、25日15-18時の間:時々

石垣空港
TAF ROIG 241112Z 2412/2518 11008KT 9999 FEW015 SCT040
BECMG 2412/2414 16005KT
BECMG 2500/2503 36011KT
TEMPO 2500/2503 4000 SHRA FEW010 BKN020 FEW025CB
日本時間24日21時:110度から8ノットの風
21-23時:風が変化
23時-25日09時:160度から5ノットの風
09-12時:風が変化
12時-26日03時:360度から11ノットの風

但し、25日12-15時の間:時々

マウイのカフルイ空港
PHOG 241138Z 2412/2512 15005KT P6SM FEW040 BKN100
FM242200 08012G20KT P6SM SCT040 BKN100
FM250000 08018G28KT P6SM VCSH SCT040 BKN100
FM250400 08012G20KT P6SM SCT040 BKN100
FM250800 07010KT P6SM FEW040 BKN100 AMD LTD TO VIS AND WIND TIL 241600
ハワイ時間24日02-12時:150度から5ノットの風
12-14時:080度から12ノット、突風20ノット
14-18時:080度から18ノット、突風28ノット
18-22時:080度から12ノット、突風20ノット
22時-25日02時:070度から10ノットの風


サイパン空港
PGSN 241123Z 2412/2512 08014KT P6SM VCSH SCT025 SCT040 BKN110
マリアナ時間24日22時-25日22時:080度から14ノットの風

コメント

2/23-2/25の航空気象通報

2018年02月23日 23時40分53秒 | TAF
羽田空港
TAF RJTT 231108Z 2312/2418 35010KT 9999 FEW030
BECMG 2322/2400 12006KT
BECMG 2400/2403 19016KT
BECMG 2409/2412 36010KT
日本時間23日21時-24日07時:350度から10ノットの風
07-09時:風が変化
09時:120度から6ノットの風
09-12時:風が変化
12-18時:190度から16ノットの風
18-21時:風が変化
21時-25日03時:360度から10ノットの風


静岡空港
TAF RJNS 231106Z 2312/2418 27014KT 9999 FEW030
TEMPO 2403/2406 26022G32KT
日本時間23日21時-25日03時:270度から14ノットの風
但し、24日12-15時:260度から22ノット、突風32ノット


福岡空港
TAF RJFF 231108Z 2312/2418 15007KT 9000 FEW040
BECMG 2400/2403 32007KT
BECMG 2409/2412 15003KT
日本時間23日21時-24日09時:150度から7ノットの風
09-12時:風が変化
12-18時:320度から7ノットの風
18-21時:風が変化
21時-25日03時:150度から3ノットの風


那覇空港
TAF ROAH 231106Z 2312/2418 06008KT 9999 FEW025 SCT045
BECMG 2400/2403 10010KT
日本時間23日21時-24日09時:060度から8ノットの風
09-12時:風が変化
12時-25日03時:100度から10ノットの風


石垣空港
TAF ROIG 231109Z 2312/2418 07010KT 9999 FEW020 BKN040
BECMG 2403/2406 14008KT
日本時間23日21時-24日12時:070度から10ノットの風
12-15時:風が変化
15時-25日03時:140度から8ノットの風


マウイのカフルイ空港
PHOG 231140Z 2312/2412 VRB05KT P6SM VCSH FEW020 BKN100
FM232100 07011G19KT P6SM SCT020 SCT040 BKN100
FM240400 07010KT P6SM SCT020 SCT040 BKN100 AMD LTD TO VIS AND WIND TIL 231600
ハワイ時間23日02-11時:風向不定5ノットの風

11-18時:070度から11ノット、突風19ノット
18時-24日02時:070度から10ノットの風


サイパン空港
PGSN 231135Z 2312/2412 09010KT P6SM SCT025
マリアナ時間23日22時-24日22時:090度から10ノットの風
コメント

2/19-2/21の航空気象通報

2018年02月20日 00時07分40秒 | TAF
羽田空港
TAF RJTT 191109Z 1912/2018 10008KT 9999 FEW020 SCT040
BECMG 1912/1914 35010KT
BECMG 2003/2006 12006KT
BECMG 2009/2012 01008KT
日本時間19日21時:100度から8ノットの風
21-23時:風が変化
23時-20日12時:350度から10ノットの風
12-15時:風が変化
15-18時:120度から6ノットの風
18-21時:風が変化
21時-21日03時:010度から8ノットの風


静岡空港
TAF RJNS 191106Z 1912/2018 30006KT 9999 FEW030
BECMG 2006/2009 27016KT
日本時間19日21時-20日15時:300度から6ノットの風
15-18時:風が変化
18時-21日03時:270度から16ノットの風


福岡空港
TAF RJFF 191109Z 1912/2018 10003KT 9999 FEW030
BECMG 2000/2003 01007KT
BECMG 2012/2015 14004KT
日本時間19日21時-20日09時:100度から3ノットの風
09-12時:風が変化
12-21時:010度から7ノットの風
21-24時:風が変化
21日00-03時:140度から4ノットの風


那覇空港
TAF ROAH 191106Z 1912/2018 25005KT 9999 FEW030
BECMG 1921/1923 33006KT
BECMG 2009/2012 19010KT
日本時間19日21時-20日06時:250度から5ノットの風
06-08時:風が変化
08-18時:330度から6ノットの風
18-21時:風が変化
21時-21日03時:190度から10ノットの風


石垣空港
TAF ROIG 191109Z 1912/2018 22005KT 9999 FEW020
BECMG 1917/1919 12006KT
BECMG 2012/2015 18007KT
日本時間19日21時-20日02時:220度から5ノットの風
02-04時:風が変化
04-21時:120度から6ノットの風
21-24時:風が変化
21日00-03時:180度から7ノットの風


マウイのカフルイ空港
PHOG 191459Z 1915/2012 VRB06KT P6SM VCSH FEW015 BKN050
TEMPO 1915/1917 SCT015 BKN030
FM192000 01011KT P6SM VCTS SCT015 BKN040CB
FM200500 VRB05KT P6SM FEW025 BKN050 AMD LTD TO VIS AND WIND TIL 191600
ハワイ時間19日02-10時:風向不定6ノットの風
10-19時:010度から11ノットの風
19時-20日02時:風向不定5ノットの風


サイパン空港
PGSN 191140Z 1912/2012 07013KT P6SM FEW025 SCT050
マリアナ時間19日22時-20日22時:070度から13ノットの風
コメント

2/18-2/20の航空気象通報

2018年02月18日 22時12分29秒 | TAF
羽田空港
TAF RJTT 181105Z 1812/1918 35016KT 9999 FEW030
BECMG 1900/1903 04006KT
BECMG 1903/1906 16006KT
BECMG 1915/1918 01010KT
日本時間18日21時-19日09時:350度から16ノットの風
09-12時:風が変化
12時:040度から6ノットの風
12-15時:風が変化
15-24時:160度から6ノットの風
20日00-03時:010度から10ノットの風


静岡空港
TAF RJNS 181105Z 1812/1918 28010KT 9999 FEW030
日本時間18日21時-20日03時:280度から10ノットの風


福岡空港
TAF RJFF 181109Z 1812/1918 03004KT 9999 FEW035
BECMG 1812/1814 15005KT
BECMG 1900/1903 03005KT
BECMG 1909/1912 12003KT
TEMPO 1909/1915 4000 -SHRA BR
日本時間18日21時:030度から4ノットの風
21-23時:風が変化
23時-19日09時:150度から5ノットの風
09-12時:風が変化
12-18時:030度から5ノットの風
18-21時:風が変化
21時-20日03時:120度から3ノットの風

但し、19日18-24時の間:時々

那覇空港
TAF ROAH 181106Z 1812/1918 12006KT 9999 FEW030
BECMG 1903/1906 18010KT
日本時間18日21時-19日12時:120度から6ノットの風
12-15時:風が変化
15時-20日03時:180度から10ノットの風


石垣空港
TAF ROIG 181108Z 1812/1918 14006KT 9999 FEW020 BKN030
日本時間18日21時-20日03時:140度から6ノットの風


マウイのカフルイ空港
PHOG 181301Z 1813/1912 06008KT P6SM VCSH SCT015 BKN030
TEMPO 1813/1815 5SM -SHRA SCT010 BKN020
FM182000 04008KT P6SM VCTS SCT015 BKN030CB
FM191000 15005KT P6SM VCTS SCT015 BKN030CB AMD LTD TO VIS AND WIND TIL 181600
ハワイ時間18日02-10時:060度から8ノットの風
10-24時:040度から8ノットの風
19日00-02時:150度から5ノットの風


サイパン空港
PGSN 181128Z 1812/1912 06010KT P6SM FEW025 SCT050
FM182200 07015KT P6SM SCT025 SCT050
マリアナ時間18日22時-19日08時:060度から10ノットの風
08-22時:070度から15ノットの風

コメント

2/17-2/19の航空気象通報

2018年02月17日 22時54分36秒 | TAF
羽田空港
TAF RJTT 171105Z 1712/1818 34022KT 9999 FEW030
TEMPO 1712/1717 34026G36KT
BECMG 1718/1720 32012KT
日本時間17日21時-18日03時:340度から22ノットの風
但し、17日21時-18日02時の間:時々340度から26ノット、突風36ノット
03-05時:風が変化
05時-16日03時:320度から12ノットの風


静岡空港
TAF RJNS 171106Z 1712/1818 27018KT 9999 FEW030
TEMPO 1712/1714 27026G38KT
TEMPO 1803/1809 28020G30KT
日本時間178日21時-19日03時:270度から18ノットの風
但し、17日21-23時の間:時々270度から26ノット、突風38ノット
但し、18日12-18時の間:時々280度から20ノット、突風30ノット


福岡空港
TAF RJFF 171105Z 1712/1818 16007KT 9999 FEW040
BECMG 1800/1803 35006KT
BECMG 1812/1815 14003KT
日本時間17日21時-18日09時:160度から7ノットの風
09-12時:風が変化
12-21時:350度から6ノットの風
21-24時:風が変化
19日00-03時:140度から3ノットの風


那覇空港
TAF ROAH 171105Z 1712/1818 04006KT 9999 FEW030 SCT040
BECMG 1722/1800 11006KT
日本時間17日21時-18日07時:040度から6ノットの風
07-09時:風が変化
09時-19日03時:110度から6ノットの風


石垣空港
TAF ROIG 171108Z 1712/1818 08011KT 9999 FEW030 BKN040
日本時間17日21時-19日03時:080度から11ノットの風


マウイのカフルイ空港
PHOG 171133Z 1712/1812 VRB03KT P6SM SCT035 BKN060
FM172000 03010KT P6SM SCT030 BKN060 AMD LTD TO VIS AND WIND TIL 171600
ハワイ時間17日02-10時:風向不定3ノットの風
10時-18日02時:030度から10ノットの風


サイパン空港
PHOG 171133Z 1712/1812 VRB03KT P6SM SCT035 BKN060
FM172000 03010KT P6SM SCT030 BKN060 AMD LTD TO VIS AND WIND TIL 171600
マリアナ時間17日22時-18日06時:風向不定3ノットの風
06-22時:030度から10ノットの風

コメント